Time;durP1;ratioP1;P1;durP2;ratioP2;P2;SDS_P1;SDS_P2;PMS_P1;PMS_P2;Temp;Humidity;BMP_temperature;BMP_pressure;BME280_temperature;BME280_humidity;BME280_pressure;Samples;Min_cycle;Max_cycle;Signal;HPM_P1;HPM_P2
2023/10/01 00:01:33;;;;;;;24.80;12.55;;;18.00;99.00;;;;;;4230561;28;20064;-59
2023/10/01 00:03:36;;;;;;;20.77;11.35;;;18.00;99.10;;;;;;4230666;28;20134;-59
2023/10/01 00:05:40;;;;;;;21.85;11.95;;;17.90;99.20;;;;;;4212488;28;20067;-59
2023/10/01 00:07:43;;;;;;;22.83;11.70;;;17.90;99.30;;;;;;4230198;28;20046;-58
2023/10/01 00:09:47;;;;;;;19.90;11.57;;;17.90;99.30;;;;;;4230734;28;20048;-59
2023/10/01 00:11:50;;;;;;;;;;;17.90;99.30;;;;;;4231041;28;20059;-60
2023/10/01 00:13:52;;;;;;;20.77;11.95;;;17.90;99.60;;;;;;4233450;28;19958;-58
2023/10/01 00:15:55;;;;;;;19.95;11.68;;;17.80;99.50;;;;;;4228891;28;20054;-60
2023/10/01 00:17:57;;;;;;;24.40;11.55;;;17.80;99.50;;;;;;4244329;28;20374;-59
2023/10/01 00:20:07;;;;;;;19.85;10.43;;;17.80;99.50;;;;;;4247471;28;20043;-59
2023/10/01 00:22:11;;;;;;;23.98;10.80;;;17.80;99.60;;;;;;4247003;28;20050;-59
2023/10/01 00:24:13;;;;;;;19.15;10.30;;;17.80;99.60;;;;;;4247371;28;20043;-60
2023/10/01 00:26:15;;;;;;;23.92;11.05;;;17.80;99.50;;;;;;4247168;28;20130;-59
2023/10/01 00:28:17;;;;;;;23.23;11.93;;;17.80;99.60;;;;;;4247088;28;20058;-60
2023/10/01 00:30:21;;;;;;;22.52;12.07;;;17.70;99.60;;;;;;4247227;28;20099;-59
2023/10/01 00:32:23;;;;;;;22.10;12.07;;;17.70;99.70;;;;;;4247379;28;20055;-59
2023/10/01 00:34:26;;;;;;;20.85;11.63;;;17.70;99.70;;;;;;4248349;28;20051;-59
2023/10/01 00:36:32;;;;;;;20.70;12.25;;;17.70;99.70;;;;;;4248204;28;20136;-62
2023/10/01 00:38:33;;;;;;;;;;;17.70;99.80;;;;;;4249513;28;20104;-63
2023/10/01 00:40:36;;;;;;;22.33;11.45;;;17.70;99.90;;;;;;4247543;28;19959;-59
2023/10/01 00:42:38;;;;;;;17.98;9.93;;;17.60;99.90;;;;;;4246970;28;20066;-59
2023/10/01 00:44:41;;;;;;;19.30;10.63;;;17.70;99.90;;;;;;4228866;28;20150;-59
2023/10/01 00:46:43;;;;;;;19.50;10.90;;;17.60;99.90;;;;;;4247310;28;20069;-59
2023/10/01 00:48:47;;;;;;;22.23;11.23;;;17.60;99.90;;;;;;4247216;28;20058;-59
2023/10/01 00:50:50;;;;;;;22.20;10.85;;;17.60;99.90;;;;;;4246934;28;20066;-59
2023/10/01 00:52:57;;;;;;;21.15;9.95;;;17.60;99.90;;;;;;4247356;28;20067;-60
2023/10/01 00:54:59;;;;;;;20.02;11.15;;;17.60;99.90;;;;;;4247247;28;20050;-59
2023/10/01 00:57:01;;;;;;;22.88;12.10;;;17.60;99.90;;;;;;4229988;28;20043;-60
2023/10/01 00:59:03;;;;;;;19.65;11.02;;;17.50;99.90;;;;;;4250285;27;20118;-59
2023/10/01 01:01:08;;;;;;;20.42;11.13;;;17.60;99.90;;;;;;4250103;27;20096;-59
2023/10/01 01:03:18;;;;;;;21.83;11.50;;;17.50;99.90;;;;;;4254192;27;20058;-62
2023/10/01 01:05:23;;;;;;;19.80;11.10;;;17.50;99.90;;;;;;4251509;27;20517;-60
2023/10/01 01:07:25;;;;;;;17.90;9.80;;;17.50;99.90;;;;;;4254162;27;20043;-60
2023/10/01 01:09:29;;;;;;;22.77;11.32;;;17.50;99.90;;;;;;4251411;27;20484;-59
2023/10/01 01:11:31;;;;;;;21.13;11.30;;;17.50;99.90;;;;;;4252589;27;20500;-60
2023/10/01 01:13:33;;;;;;;20.52;11.50;;;17.50;99.90;;;;;;4250142;27;20495;-60
2023/10/01 01:15:38;;;;;;;19.25;11.00;;;17.50;99.90;;;;;;4249698;27;20051;-58
2023/10/01 01:17:41;;;;;;;25.77;12.00;;;17.50;99.90;;;;;;4249544;27;20050;-59
2023/10/01 01:19:50;;;;;;;16.70;10.52;;;17.40;99.90;;;;;;4249682;27;20050;-59
2023/10/01 01:21:52;;;;;;;16.83;9.75;;;17.40;99.90;;;;;;4249852;27;20053;-60
2023/10/01 01:23:57;;;;;;;21.90;10.85;;;17.40;99.90;;;;;;4249229;27;20051;-59
2023/10/01 01:26:00;;;;;;;22.40;11.20;;;17.40;99.90;;;;;;4249871;27;20047;-59
2023/10/01 01:28:06;;;;;;;20.98;11.00;;;17.40;99.90;;;;;;4249652;27;20067;-59
2023/10/01 01:30:17;;;;;;;20.83;12.10;;;17.40;99.90;;;;;;4251786;27;20047;-59
2023/10/01 01:32:19;;;;;;;19.10;10.65;;;17.40;99.90;;;;;;4251852;27;20039;-61
2023/10/01 01:34:21;;;;;;;19.60;11.10;;;17.40;99.90;;;;;;4252598;27;20047;-61
2023/10/01 01:36:25;;;;;;;23.10;11.63;;;17.40;99.90;;;;;;4251842;27;20039;-60
2023/10/01 01:38:27;;;;;;;22.15;11.63;;;17.40;99.90;;;;;;4253236;27;20071;-64
2023/10/01 01:40:40;;;;;;;19.05;10.98;;;17.30;99.90;;;;;;4251939;27;20412;-62
2023/10/01 01:42:42;;;;;;;18.63;10.70;;;17.40;99.90;;;;;;4253041;27;20096;-62
2023/10/01 01:44:44;;;;;;;21.55;11.85;;;17.30;99.90;;;;;;4251767;27;20047;-65
2023/10/01 01:46:49;;;;;;;20.70;10.02;;;17.30;99.90;;;;;;4252362;27;20047;-67
2023/10/01 01:48:53;;;;;;;19.88;10.60;;;17.30;99.90;;;;;;4249990;27;20483;-63
2023/10/01 01:50:55;;;;;;;17.77;10.52;;;17.30;99.90;;;;;;4250153;27;20062;-65
2023/10/01 01:52:58;;;;;;;22.08;10.35;;;17.30;99.90;;;;;;4250520;27;20386;-61
2023/10/01 01:55:22;;;;;;;20.10;10.88;;;17.30;99.90;;;;;;4251038;27;20070;-62
2023/10/01 01:57:28;;;;;;;21.58;11.60;;;17.30;99.90;;;;;;4251172;27;20118;-66
2023/10/01 01:59:31;;;;;;;20.67;10.77;;;17.30;99.90;;;;;;4250749;27;20047;-60
2023/10/01 02:01:35;;;;;;;21.77;11.65;;;17.30;99.90;;;;;;4251490;27;20047;-60
2023/10/01 02:03:39;;;;;;;17.20;10.25;;;17.30;99.90;;;;;;4251534;27;20111;-62
2023/10/01 02:05:41;;;;;;;18.15;10.68;;;17.20;99.90;;;;;;4250257;27;20043;-61
2023/10/01 02:07:44;;;;;;;19.10;10.45;;;17.20;99.90;;;;;;4250506;27;20462;-64
2023/10/01 02:09:46;;;;;;;19.00;10.93;;;17.20;99.90;;;;;;4249903;27;20078;-60
2023/10/01 02:11:49;;;;;;;18.60;10.80;;;17.20;99.90;;;;;;4251079;27;20053;-61
2023/10/01 02:13:54;;;;;;;20.95;11.65;;;17.20;99.90;;;;;;4251276;27;20068;-64
2023/10/01 02:16:18;;;;;;;21.65;11.90;;;17.20;99.90;;;;;;4251488;27;20051;-66
2023/10/01 02:18:20;;;;;;;20.73;11.57;;;17.10;99.90;;;;;;4233590;28;20143;-61
2023/10/01 02:20:23;;;;;;;18.23;10.85;;;17.20;99.90;;;;;;4234238;28;20039;-61
2023/10/01 02:22:27;;;;;;;20.38;10.77;;;17.20;99.90;;;;;;4233942;28;20054;-60
2023/10/01 02:27:03;;;;;;;21.05;10.63;;;17.10;99.90;;;;;;4233702;28;20050;-61
2023/10/01 02:29:13;;;;;;;20.42;11.68;;;17.00;99.90;;;;;;4233645;28;20461;-60
2023/10/01 02:31:15;;;;;;;20.40;10.57;;;17.00;99.90;;;;;;4232001;28;20044;-61
2023/10/01 02:33:18;;;;;;;20.75;11.25;;;17.00;99.90;;;;;;4231940;28;20055;-60
2023/10/01 02:35:35;;;;;;;25.27;11.95;;;17.00;99.90;;;;;;4232509;28;20067;-59
2023/10/01 02:37:42;;;;;;;22.90;11.98;;;17.00;99.90;;;;;;4232144;28;20104;-60
2023/10/01 02:39:44;;;;;;;23.38;10.73;;;17.00;99.90;;;;;;4231893;28;20047;-59
2023/10/01 02:42:09;;;;;;;20.17;11.32;;;16.90;99.90;;;;;;4231747;28;20044;-60
2023/10/01 02:44:11;;;;;;;17.63;11.35;;;16.90;99.90;;;;;;4231630;28;20471;-62
2023/10/01 02:46:15;;;;;;;21.02;11.07;;;17.00;99.90;;;;;;4231286;28;20044;-60
2023/10/01 02:48:18;;;;;;;22.48;11.85;;;16.90;99.90;;;;;;4231669;28;20055;-60
2023/10/01 02:50:21;;;;;;;18.48;10.95;;;16.90;99.90;;;;;;4231401;28;20059;-60
2023/10/01 02:52:36;;;;;;;23.75;11.98;;;16.90;99.90;;;;;;4231230;28;20050;-58
2023/10/01 02:54:39;;;;;;;;;;;16.90;99.90;;;;;;4231937;28;20043;-68
2023/10/01 02:56:52;;;;;;;19.65;10.90;;;16.80;99.90;;;;;;4231689;28;19931;-59
2023/10/01 02:58:55;;;;;;;21.88;12.05;;;16.80;99.90;;;;;;4231695;28;20043;-59
2023/10/01 03:01:07;;;;;;;22.33;11.45;;;16.80;99.90;;;;;;4231309;28;20082;-60
2023/10/01 03:03:17;;;;;;;19.77;10.95;;;16.80;99.90;;;;;;4232603;28;20119;-61
2023/10/01 03:07:32;;;;;;;22.30;10.63;;;16.80;99.90;;;;;;4232968;28;20146;-61
2023/10/01 03:09:39;;;;;;;18.98;10.18;;;16.80;99.90;;;;;;4231843;28;20088;-59
2023/10/01 03:11:44;;;;;;;19.13;10.88;;;16.80;99.90;;;;;;4232586;28;20545;-61
2023/10/01 03:13:48;;;;;;;20.17;10.73;;;16.70;99.90;;;;;;4233341;27;20134;-60
2023/10/01 03:18:34;;;;;;;20.55;11.55;;;16.70;99.90;;;;;;4248145;27;20480;-59
2023/10/01 03:22:39;;;;;;;23.38;11.63;;;16.80;99.90;;;;;;4248385;27;20051;-60
2023/10/01 03:24:46;;;;;;;21.77;11.00;;;16.80;99.90;;;;;;4248226;27;20047;-60
2023/10/01 03:26:48;;;;;;;19.63;10.75;;;16.80;99.90;;;;;;4248154;27;20113;-59
2023/10/01 03:31:12;;;;;;;21.38;11.30;;;16.80;99.90;;;;;;4247592;27;20057;-59
2023/10/01 03:33:16;;;;;;;21.35;11.65;;;16.80;99.90;;;;;;4247854;27;20527;-59
2023/10/01 03:35:21;;;;;;;18.20;10.57;;;16.80;99.90;;;;;;4247854;27;20050;-59
2023/10/01 03:37:28;;;;;;;20.30;11.05;;;16.80;99.90;;;;;;4247761;27;20043;-59
2023/10/01 03:39:35;;;;;;;18.20;9.93;;;16.80;99.90;;;;;;4247628;27;20377;-60
2023/10/01 03:41:52;;;;;;;22.05;11.15;;;16.70;99.90;;;;;;4230003;28;20425;-61
2023/10/01 03:44:39;;;;;;;22.10;12.10;;;16.70;99.90;;;;;;4249463;27;20039;-59
2023/10/01 03:48:42;;;;;;;20.15;10.82;;;16.70;99.90;;;;;;4249006;28;20466;-60
2023/10/01 03:50:47;;;;;;;22.15;11.23;;;16.70;99.90;;;;;;4248510;28;20065;-59
2023/10/01 03:52:52;;;;;;;;;;;16.70;99.90;;;;;;4248631;28;20474;-59
2023/10/01 03:57:00;;;;;;;25.85;10.60;;;16.70;99.90;;;;;;4247766;28;20489;-59
2023/10/01 03:59:02;;;;;;;27.73;11.50;;;16.70;99.90;;;;;;4247192;28;20074;-59
2023/10/01 04:01:25;;;;;;;18.33;10.23;;;16.70;99.90;;;;;;4247540;28;20042;-59
2023/10/01 04:03:38;;;;;;;22.65;11.25;;;16.70;99.90;;;;;;4247709;28;20515;-59
2023/10/01 04:05:44;;;;;;;22.17;11.27;;;16.60;99.90;;;;;;4247333;28;20047;-59
2023/10/01 04:07:47;;;;;;;24.08;11.10;;;16.60;99.90;;;;;;4247499;28;20047;-59
2023/10/01 04:09:54;;;;;;;22.42;11.48;;;16.60;99.90;;;;;;4247052;28;20408;-59
2023/10/01 04:12:18;;;;;;;19.77;10.75;;;16.60;99.90;;;;;;4247383;28;20043;-59
2023/10/01 04:14:23;;;;;;;19.60;10.88;;;16.60;99.90;;;;;;4246924;28;20070;-59
2023/10/01 04:16:25;;;;;;;;;;;16.60;99.90;;;;;;4247730;28;20039;-59
2023/10/01 04:18:28;;;;;;;22.15;11.88;;;16.60;99.90;;;;;;4247286;28;19924;-59
2023/10/01 04:20:31;;;;;;;23.27;11.65;;;16.50;99.90;;;;;;4247200;28;20047;-58
2023/10/01 04:22:36;;;;;;;21.75;10.65;;;16.50;99.90;;;;;;4228937;28;20039;-59
2023/10/01 04:24:38;;;;;;;20.73;11.43;;;16.60;99.90;;;;;;4247252;28;20043;-60
2023/10/01 04:26:42;;;;;;;22.85;11.48;;;16.50;99.90;;;;;;4247172;28;20118;-59
2023/10/01 04:28:46;;;;;;;24.17;10.63;;;16.50;99.90;;;;;;4246902;28;20047;-59
2023/10/01 04:30:51;;;;;;;19.55;10.93;;;16.50;99.90;;;;;;4247487;27;20051;-64
2023/10/01 04:32:54;;;;;;;18.88;10.60;;;16.50;99.90;;;;;;4249743;27;20047;-60
2023/10/01 04:34:58;;;;;;;18.50;10.32;;;16.50;99.90;;;;;;4250450;27;20047;-60
2023/10/01 04:37:00;;;;;;;23.63;11.60;;;16.50;99.90;;;;;;4250609;27;20047;-60
2023/10/01 04:39:03;;;;;;;20.35;10.93;;;16.50;99.90;;;;;;4250501;27;20418;-58
2023/10/01 04:41:07;;;;;;;19.05;10.55;;;16.60;99.90;;;;;;4249954;27;20118;-60
2023/10/01 04:43:10;;;;;;;18.52;10.50;;;16.50;99.90;;;;;;4250101;27;20096;-60
2023/10/01 04:45:23;;;;;;;20.02;10.15;;;16.50;99.90;;;;;;4250384;27;20126;-59
2023/10/01 04:47:31;;;;;;;20.00;11.48;;;16.50;99.90;;;;;;4250341;27;20043;-59
2023/10/01 04:49:41;;;;;;;23.50;11.40;;;16.50;99.90;;;;;;4250245;27;20047;-60
2023/10/01 04:51:47;;;;;;;21.90;11.02;;;16.50;99.90;;;;;;4232471;28;20442;-59
2023/10/01 04:53:49;;;;;;;20.90;11.38;;;16.40;99.90;;;;;;4250451;27;20472;-58
2023/10/01 04:56:05;;;;;;;19.42;10.35;;;16.40;99.90;;;;;;4250295;27;20423;-59
2023/10/01 04:58:08;;;;;;;20.30;10.68;;;16.50;99.90;;;;;;4250180;27;20043;-58
2023/10/01 05:00:11;;;;;;;20.52;11.43;;;16.50;99.90;;;;;;4250148;27;20043;-59
2023/10/01 05:02:21;;;;;;;20.23;11.70;;;16.50;99.90;;;;;;4231841;28;20134;-59
2023/10/01 05:04:24;;;;;;;21.10;11.82;;;16.50;99.90;;;;;;4250105;27;20066;-60
2023/10/01 05:06:27;;;;;;;26.40;12.15;;;16.40;99.90;;;;;;4250060;27;20039;-59
2023/10/01 05:08:38;;;;;;;20.42;11.10;;;16.40;99.90;;;;;;4250123;27;20081;-60
2023/10/01 05:10:52;;;;;;;24.77;11.18;;;16.40;99.90;;;;;;4250077;27;20054;-59
2023/10/01 05:13:02;;;;;;;20.40;10.30;;;16.40;99.90;;;;;;4249660;27;20484;-58
2023/10/01 05:15:17;;;;;;;25.48;11.75;;;16.40;99.90;;;;;;4249812;27;20126;-59
2023/10/01 05:17:19;;;;;;;22.92;10.52;;;16.40;99.90;;;;;;4241093;27;20051;-59
2023/10/01 05:19:25;;;;;;;22.60;10.80;;;16.40;99.90;;;;;;4232736;28;20054;-58
2023/10/01 05:21:36;;;;;;;21.13;10.95;;;16.30;99.90;;;;;;4232898;28;20047;-60
2023/10/01 05:23:40;;;;;;;20.75;10.60;;;16.30;99.90;;;;;;4232729;28;20149;-59
2023/10/01 05:25:49;;;;;;;20.53;10.87;;;16.30;99.90;;;;;;4232512;28;20092;-60
2023/10/01 05:27:54;;;;;;;25.15;11.75;;;16.30;99.90;;;;;;4233519;28;20098;-60
2023/10/01 05:29:57;;;;;;;23.13;11.60;;;16.30;99.90;;;;;;4234300;28;20043;-59
2023/10/01 05:31:59;;;;;;;21.00;10.82;;;16.40;99.90;;;;;;4234555;28;20104;-61
2023/10/01 05:34:03;;;;;;;22.83;11.43;;;16.30;99.90;;;;;;4235299;28;20100;-59
2023/10/01 05:36:06;;;;;;;23.45;11.63;;;16.30;99.90;;;;;;4233450;28;20044;-59
2023/10/01 05:38:10;;;;;;;20.58;10.70;;;16.30;99.90;;;;;;4233082;28;20043;-60
2023/10/01 05:40:15;;;;;;;23.43;11.47;;;16.30;99.90;;;;;;4232330;28;20039;-59
2023/10/01 05:42:19;;;;;;;20.02;11.63;;;16.20;99.90;;;;;;4232499;28;20464;-59
2023/10/01 05:44:22;;;;;;;20.03;10.33;;;16.20;99.90;;;;;;4232776;28;20048;-58
2023/10/01 05:46:24;;;;;;;24.70;11.80;;;16.20;99.90;;;;;;4214616;28;20086;-58
2023/10/01 05:48:32;;;;;;;21.23;11.45;;;16.20;99.90;;;;;;4232437;28;20500;-58
2023/10/01 05:50:36;;;;;;;19.90;10.55;;;16.20;99.90;;;;;;4231979;28;20052;-59
2023/10/01 05:52:40;;;;;;;19.33;10.60;;;16.20;99.90;;;;;;4214468;28;20048;-59
2023/10/01 05:54:52;;;;;;;21.75;11.10;;;16.20;99.90;;;;;;4232023;28;20451;-59
2023/10/01 05:56:55;;;;;;;22.45;11.73;;;16.20;99.90;;;;;;4214100;28;20068;-59
2023/10/01 05:58:58;;;;;;;18.33;11.38;;;16.10;99.90;;;;;;4231986;28;20044;-60
2023/10/01 06:01:13;;;;;;;20.58;10.63;;;16.10;99.90;;;;;;4232261;28;20097;-59
2023/10/01 06:03:17;;;;;;;;;;;16.20;99.90;;;;;;4232490;28;20050;-59
2023/10/01 06:05:25;;;;;;;18.70;10.38;;;16.20;99.90;;;;;;4231995;28;19980;-59
2023/10/01 06:07:27;;;;;;;24.00;11.48;;;16.10;99.90;;;;;;4231886;28;20043;-59
2023/10/01 06:09:36;;;;;;;19.70;10.48;;;16.10;99.90;;;;;;4231542;28;20043;-58
2023/10/01 06:11:58;;;;;;;22.85;12.07;;;16.00;99.90;;;;;;4232050;28;20067;-59
2023/10/01 06:14:36;;;;;;;25.35;12.85;;;16.00;99.90;;;;;;4237116;27;20137;-59
2023/10/01 06:16:38;;;;;;;21.38;11.57;;;16.00;99.90;;;;;;4248703;27;20043;-59
2023/10/01 06:18:41;;;;;;;22.27;10.98;;;16.00;99.90;;;;;;4248740;27;20057;-59
2023/10/01 06:20:43;;;;;;;19.60;10.65;;;16.00;99.90;;;;;;4249006;27;20047;-59
2023/10/01 06:22:45;;;;;;;20.60;10.93;;;16.10;99.90;;;;;;4248859;27;20051;-59
2023/10/01 06:24:47;;;;;;;19.73;10.70;;;16.10;99.90;;;;;;4230126;28;20050;-59
2023/10/01 06:26:50;;;;;;;25.60;11.63;;;16.10;99.90;;;;;;4248651;27;20078;-59
2023/10/01 06:28:53;;;;;;;22.13;11.40;;;16.10;99.90;;;;;;4248814;27;20092;-61
2023/10/01 06:30:57;;;;;;;18.98;10.50;;;16.20;99.90;;;;;;4248290;27;20088;-60
2023/10/01 06:32:59;;;;;;;21.52;10.85;;;16.20;99.90;;;;;;4248805;27;20044;-59
2023/10/01 06:35:14;;;;;;;24.65;12.27;;;16.30;99.90;;;;;;4248524;27;20485;-59
2023/10/01 06:37:19;;;;;;;19.90;10.85;;;16.20;99.90;;;;;;4248347;27;20493;-60
2023/10/01 06:39:23;;;;;;;;;;;16.20;99.90;;;;;;4248525;27;20134;-59
2023/10/01 06:41:25;;;;;;;23.45;12.07;;;16.20;99.90;;;;;;4248727;27;19973;-60
2023/10/01 06:43:28;;;;;;;20.48;11.07;;;16.20;99.90;;;;;;4248767;27;20070;-61
2023/10/01 06:45:39;;;;;;;24.98;12.43;;;16.30;99.90;;;;;;4248599;27;20071;-60
2023/10/01 06:47:43;;;;;;;23.48;11.70;;;16.40;99.90;;;;;;4248604;27;20047;-59
2023/10/01 06:52:01;;;;;;;24.63;12.45;;;16.40;99.90;;;;;;4248929;27;20523;-60
2023/10/01 06:54:05;;;;;;;22.90;12.20;;;16.50;99.90;;;;;;4249463;27;20051;-66
2023/10/01 06:56:09;;;;;;;26.30;11.93;;;16.40;99.90;;;;;;4249622;27;20039;-60
2023/10/01 06:58:13;;;;;;;22.70;12.35;;;16.50;99.90;;;;;;4230079;28;20456;-60
2023/10/01 07:00:21;;;;;;;21.45;12.10;;;16.50;99.90;;;;;;4230191;28;20047;-65
2023/10/01 07:02:25;;;;;;;20.90;11.63;;;16.50;99.90;;;;;;4230111;28;20404;-61
2023/10/01 07:04:32;;;;;;;19.58;10.80;;;16.60;99.90;;;;;;4248080;27;20051;-59
2023/10/01 07:06:36;;;;;;;20.70;10.93;;;16.60;99.90;;;;;;4248278;27;20058;-60
2023/10/01 07:08:38;;;;;;;23.27;11.23;;;16.70;99.90;;;;;;4247829;27;20050;-60
2023/10/01 07:10:40;;;;;;;26.90;12.30;;;16.80;99.90;;;;;;4247808;27;20053;-60
2023/10/01 07:12:57;;;;;;;26.58;12.57;;;16.80;99.90;;;;;;4248226;27;20046;-59
2023/10/01 07:15:00;;;;;;;25.65;13.15;;;16.90;99.90;;;;;;4247939;27;20051;-59
2023/10/01 07:17:02;;;;;;;19.73;11.35;;;17.00;99.90;;;;;;4247152;27;20129;-60
2023/10/01 07:19:04;;;;;;;23.42;12.60;;;17.10;99.90;;;;;;4248005;27;20082;-60
2023/10/01 07:21:11;;;;;;;21.90;11.32;;;17.30;99.90;;;;;;4247984;27;20049;-60
2023/10/01 07:23:14;;;;;;;20.88;11.70;;;17.30;99.90;;;;;;4247408;27;20047;-60
2023/10/01 07:27:42;;;;;;;20.75;11.07;;;17.50;99.90;;;;;;4247714;27;20055;-60
2023/10/01 07:29:44;;;;;;;22.60;12.32;;;17.50;99.90;;;;;;4247939;27;20083;-60
2023/10/01 07:31:46;;;;;;;21.38;11.25;;;17.60;99.90;;;;;;4247529;27;20199;-60
2023/10/01 07:33:48;;;;;;;22.35;11.93;;;17.70;99.90;;;;;;4247701;27;20122;-60
2023/10/01 07:36:00;;;;;;;17.88;10.90;;;17.70;99.90;;;;;;4247860;27;20057;-59
2023/10/01 07:38:06;;;;;;;25.48;12.25;;;17.80;99.90;;;;;;4229773;28;20188;-60
2023/10/01 07:40:09;;;;;;;26.85;12.20;;;17.80;99.90;;;;;;4247846;27;20142;-61
2023/10/01 07:42:11;;;;;;;22.65;12.48;;;17.80;99.90;;;;;;4247793;27;20400;-60
2023/10/01 07:44:15;;;;;;;22.70;11.80;;;17.80;99.90;;;;;;4247940;27;20067;-60
2023/10/01 07:46:18;;;;;;;22.33;11.60;;;17.90;99.90;;;;;;4248103;28;20126;-60
2023/10/01 07:48:21;;;;;;;23.00;11.73;;;17.90;99.90;;;;;;4229817;28;20417;-60
2023/10/01 07:50:24;;;;;;;21.15;12.02;;;18.00;99.90;;;;;;4245879;28;20108;-59
2023/10/01 07:52:26;;;;;;;24.33;12.60;;;18.10;99.90;;;;;;4247411;28;20128;-60
2023/10/01 07:54:30;;;;;;;22.52;10.57;;;18.10;99.90;;;;;;4241739;28;20035;-60
2023/10/01 07:56:39;;;;;;;25.92;11.23;;;18.20;99.90;;;;;;4230767;28;20067;-60
2023/10/01 07:58:56;;;;;;;21.95;10.85;;;18.30;99.90;;;;;;4230489;28;20043;-61
2023/10/01 08:03:32;;;;;;;23.58;10.95;;;18.40;99.90;;;;;;4245826;27;20043;-62
2023/10/01 08:05:38;;;;;;;20.75;11.15;;;18.50;99.90;;;;;;4245737;27;20096;-60
2023/10/01 08:07:43;;;;;;;18.30;10.65;;;18.60;99.90;;;;;;4250565;27;20054;-60
2023/10/01 08:09:52;;;;;;;22.58;11.80;;;18.70;99.90;;;;;;4250655;27;20051;-60
2023/10/01 08:11:59;;;;;;;21.52;11.52;;;18.70;99.90;;;;;;4250596;27;20540;-61
2023/10/01 08:14:05;;;;;;;23.25;11.80;;;18.70;99.90;;;;;;4251026;27;20067;-62
2023/10/01 08:16:13;;;;;;;23.80;11.30;;;18.80;99.90;;;;;;4251044;27;20405;-60
2023/10/01 08:18:34;;;;;;;21.48;11.98;;;18.90;99.90;;;;;;4233679;27;20071;-61
2023/10/01 08:20:44;;;;;;;22.27;13.55;;;18.90;99.90;;;;;;4233283;28;20100;-60
2023/10/01 08:25:08;;;;;;;23.42;13.85;;;19.00;99.90;;;;;;4233724;28;20085;-60
2023/10/01 08:27:31;;;;;;;21.08;13.18;;;19.00;99.90;;;;;;4233687;28;20051;-60
2023/10/01 08:29:59;;;;;;;27.08;14.90;;;19.00;99.70;;;;;;4233602;28;20063;-59
2023/10/01 08:34:22;;;;;;;24.60;14.15;;;19.10;99.60;;;;;;4233553;28;20047;-61
2023/10/01 08:36:24;;;;;;;25.05;14.27;;;19.10;99.50;;;;;;4233444;28;20043;-60
2023/10/01 08:38:34;;;;;;;24.98;13.82;;;19.20;99.60;;;;;;4233336;28;20565;-60
2023/10/01 08:40:41;;;;;;;26.38;13.43;;;19.10;99.40;;;;;;4233467;28;20463;-59
2023/10/01 08:42:45;;;;;;;26.00;13.63;;;19.30;99.40;;;;;;4233185;28;20051;-60
2023/10/01 08:44:49;;;;;;;21.33;12.38;;;19.30;99.30;;;;;;4233461;28;20414;-59
2023/10/01 08:46:51;;;;;;;24.38;13.45;;;19.40;99.30;;;;;;4233340;28;20079;-61
2023/10/01 08:49:18;;;;;;;20.08;11.50;;;19.40;99.20;;;;;;4232993;28;20084;-59
2023/10/01 08:51:17;;;;;;;24.88;13.43;;;19.50;99.20;;;;;;4233876;28;20051;-62
2023/10/01 08:53:20;;;;;;;23.40;11.82;;;19.60;99.10;;;;;;4234084;28;20083;-62
2023/10/01 08:55:24;;;;;;;21.48;11.15;;;19.60;99.00;;;;;;4234623;28;20130;-61
2023/10/01 08:57:45;;;;;;;20.42;11.55;;;19.60;98.80;;;;;;4234858;28;20469;-63
2023/10/01 08:59:47;;;;;;;18.48;10.60;;;19.70;98.90;;;;;;4234721;28;20048;-62
2023/10/01 09:01:52;;;;;;;21.33;11.73;;;19.70;98.80;;;;;;4233720;28;20051;-60
2023/10/01 09:03:57;;;;;;;22.80;11.35;;;19.70;98.70;;;;;;4232812;28;20082;-60
2023/10/01 09:06:24;;;;;;;24.25;12.55;;;19.80;98.70;;;;;;4233121;28;20126;-59
2023/10/01 09:08:33;;;;;;;19.80;11.32;;;19.80;98.50;;;;;;4233005;28;20054;-60
2023/10/01 09:10:38;;;;;;;22.45;10.95;;;19.80;98.50;;;;;;4232999;28;20058;-60
2023/10/01 09:12:48;;;;;;;20.00;11.02;;;19.90;98.60;;;;;;4232768;28;20161;-60
2023/10/01 09:14:50;;;;;;;19.70;11.38;;;19.90;98.30;;;;;;4243909;27;20093;-60
2023/10/01 09:16:58;;;;;;;19.50;10.80;;;20.00;98.50;;;;;;4249788;27;20405;-60
2023/10/01 09:19:29;;;;;;;22.30;11.57;;;20.00;98.30;;;;;;4249035;27;20047;-59
2023/10/01 09:21:28;;;;;;;23.25;12.23;;;20.10;98.20;;;;;;4249495;27;20039;-60
2023/10/01 09:23:54;;;;;;;22.83;11.60;;;20.10;98.30;;;;;;4249672;27;20081;-60
2023/10/01 09:26:00;;;;;;;23.83;12.43;;;20.10;98.20;;;;;;4249809;27;20126;-60
2023/10/01 09:28:04;;;;;;;22.55;12.52;;;20.10;98.10;;;;;;4249725;27;20100;-60
2023/10/01 09:30:26;;;;;;;22.67;12.63;;;20.20;98.00;;;;;;4249496;27;20043;-60
2023/10/01 09:32:50;;;;;;;21.58;11.77;;;20.20;97.90;;;;;;4249432;27;20051;-60
2023/10/01 09:34:57;;;;;;;23.50;11.55;;;20.20;98.00;;;;;;4249380;27;20043;-60
2023/10/01 09:37:03;;;;;;;21.50;11.75;;;20.20;98.00;;;;;;4249427;27;20130;-60
2023/10/01 09:39:06;;;;;;;20.75;10.57;;;20.30;98.00;;;;;;4249397;27;20039;-60
2023/10/01 09:41:19;;;;;;;18.88;10.75;;;20.40;98.00;;;;;;4249435;27;20074;-59
2023/10/01 09:43:29;;;;;;;27.33;12.18;;;20.50;97.90;;;;;;4249314;27;20461;-60
2023/10/01 09:45:41;;;;;;;16.88;11.20;;;20.50;97.80;;;;;;4249177;27;20047;-60
2023/10/01 09:47:49;;;;;;;19.55;11.30;;;20.60;97.70;;;;;;4249220;27;20046;-60
2023/10/01 09:49:53;;;;;;;20.48;11.25;;;20.60;97.60;;;;;;4249242;27;20047;-60
2023/10/01 09:51:58;;;;;;;21.05;11.10;;;20.70;97.80;;;;;;4249122;27;20043;-60
2023/10/01 09:54:02;;;;;;;20.95;11.93;;;20.80;97.60;;;;;;4231345;28;20217;-60
2023/10/01 09:56:12;;;;;;;22.80;11.10;;;20.80;97.50;;;;;;4231462;27;20490;-60
2023/10/01 09:58:28;;;;;;;22.25;10.63;;;20.90;97.40;;;;;;4249155;27;20397;-60
2023/10/01 10:00:42;;;;;;;18.90;9.55;;;21.00;97.40;;;;;;4249654;27;20063;-65
2023/10/01 10:02:53;;;;;;;17.40;9.38;;;21.00;97.40;;;;;;4248966;27;20108;-59
2023/10/01 10:04:55;;;;;;;14.60;8.60;;;21.10;97.50;;;;;;4249128;27;20044;-60
2023/10/01 10:07:01;;;;;;;18.88;10.07;;;21.10;97.40;;;;;;4249101;27;20126;-61
2023/10/01 10:09:08;;;;;;;19.25;8.70;;;21.20;97.40;;;;;;4248844;27;20047;-60
2023/10/01 10:11:23;;;;;;;14.55;8.27;;;21.20;97.30;;;;;;4248630;27;20051;-59
2023/10/01 10:13:36;;;;;;;17.70;8.80;;;21.30;97.30;;;;;;4249172;27;20078;-60
2023/10/01 10:16:30;;;;;;;15.05;8.15;;;21.30;97.20;;;;;;4231625;28;20071;-61
2023/10/01 10:18:32;;;;;;;14.43;8.23;;;21.40;97.10;;;;;;4225098;28;20063;-60
2023/10/01 10:20:56;;;;;;;20.40;8.90;;;21.40;97.10;;;;;;4231747;28;20050;-60
2023/10/01 10:23:13;;;;;;;15.77;9.40;;;21.50;96.90;;;;;;4231727;28;20052;-59
2023/10/01 10:25:21;;;;;;;21.25;9.85;;;21.50;96.90;;;;;;4231781;28;20050;-61
2023/10/01 10:27:47;;;;;;;19.10;9.73;;;21.60;96.80;;;;;;4231652;28;20055;-61
2023/10/01 10:30:14;;;;;;;18.27;9.55;;;21.60;96.50;;;;;;4226368;28;20044;-61
2023/10/01 10:32:24;;;;;;;21.10;9.95;;;21.70;96.60;;;;;;4231634;28;20047;-60
2023/10/01 10:34:28;;;;;;;19.85;9.82;;;21.70;96.80;;;;;;4232125;28;20051;-60
2023/10/01 10:36:34;;;;;;;17.67;9.85;;;21.80;96.60;;;;;;4231515;28;20048;-60
2023/10/01 10:38:51;;;;;;;17.45;9.50;;;21.80;96.60;;;;;;4231807;28;20489;-61
2023/10/01 10:41:07;;;;;;;19.58;9.30;;;21.80;96.40;;;;;;4231795;28;20445;-61
2023/10/01 10:43:16;;;;;;;18.67;9.75;;;21.90;96.60;;;;;;4231532;28;20112;-59
2023/10/01 10:45:21;;;;;;;22.42;10.40;;;21.90;96.60;;;;;;4231297;28;20115;-58
2023/10/01 10:47:26;;;;;;;15.65;9.02;;;22.00;96.50;;;;;;4231250;28;20485;-60
2023/10/01 10:49:49;;;;;;;19.08;8.93;;;22.00;96.40;;;;;;4231496;28;20481;-58
2023/10/01 10:51:58;;;;;;;17.67;9.38;;;22.10;96.30;;;;;;4297654;27;20124;-60
2023/10/01 10:54:05;;;;;;;15.52;8.95;;;22.10;96.60;;;;;;4280000;27;20061;-58
2023/10/01 10:56:14;;;;;;;19.23;8.80;;;22.20;96.50;;;;;;4279986;27;20506;-59
2023/10/01 10:58:24;;;;;;;15.60;8.90;;;22.20;96.40;;;;;;4279883;27;20121;-59
2023/10/01 11:00:39;;;;;;;17.15;8.18;;;22.20;96.10;;;;;;4279271;27;20057;-58
2023/10/01 11:02:53;;;;;;;17.50;9.35;;;22.30;96.30;;;;;;4279726;27;20125;-59
2023/10/01 11:04:55;;;;;;;22.30;10.05;;;22.40;96.30;;;;;;4279592;27;20058;-59
2023/10/01 11:07:02;;;;;;;18.17;9.02;;;22.40;96.30;;;;;;4279716;27;20043;-59
2023/10/01 11:09:22;;;;;;;15.70;8.73;;;22.50;96.10;;;;;;4279714;27;20087;-60
2023/10/01 11:11:39;;;;;;;15.18;8.38;;;22.50;96.10;;;;;;4279165;27;20167;-58
2023/10/01 11:13:46;;;;;;;14.27;8.20;;;22.60;95.80;;;;;;4279233;27;20050;-58
2023/10/01 11:15:53;;;;;;;15.50;8.90;;;22.60;95.80;;;;;;4279860;27;20133;-58